International Virtual Aviation Organisation

Eastern Europe and Northern Asia MCD

 

Карточка аэропорта UUWW

Внимание!
Информация на этой странице в стадии наполнения.
Если вы не увидели какой-то информации, или заметили неточность - пожалуйста сообщите нам!
Спасибо!
Команда RU-STAFF
Название аэропортаВнуково
Название аэропорта (англ.)Vnukovo
Превышение686 ft. (209.1 m.)
Координаты55°35.952', 37°16.386'
Высота перехода10000 ft
Эшелон переходаFL110
Коды ответчика2101-2117
Зона ОрВДМосква РПИ (UUWV)
Данные METARUUWW 121130Z 10007MPS 9999 BKN035 14/M00 Q1029 R01/000070 NOSIG
Проноз погоды (TAF)UUWW 121058Z 1212/1312 09005G10MPS 9999 SCT030 TX20/1312Z TN06/1303Z TEMPO 1212/1216 10009G15MPS BECMG 1219/1221 15006MPS TEMPO 1308/1312 14008G13MPS
NOTAMshow/hide NOTAM
AWOS   TABLE

Информация о ВПП

ВПП Длина ВПП (м.) Покрытие Курс ВПП Частота ILS
013060Асфальтобетон13111.7
063500Цементобетон58108.9
193060Асфальтобетон193111.5
243500Цементобетон238111.1

Диспетчерские позиции

Позывной Наименование органа УВД Частота
UUWW_TWRВнуково-Вышка118.300
UUWW_GNDВнуково-Руление120.450
UUWW_GNDВнуково-Руление121.700
UUWW_DELВнуково-Деливери131.800
UUWW_DELВнуково-Деливери129.700
UUWW_APPВнуково-Прилет123.400
UUWW_D_APPВнуково-Прилет126.000
UUWW_DEPВнуково-Вылет135.175



Спутниковое изображение